sensor_id;sensor_type;location;lat;lon;timestamp;pressure;altitude;pressure_sealevel;temperature;humidity
54122;BME280;40029;58.708;50.190;2023-02-20T00:02:18;99536.72;;;-15.93;32.84
54122;BME280;40029;58.708;50.190;2023-02-20T00:04:49;99593.53;;;-15.62;32.53
54122;BME280;40029;58.708;50.190;2023-02-20T00:07:21;99593.94;;;-15.69;33.09
54122;BME280;40029;58.708;50.190;2023-02-20T00:09:52;99523.22;;;-16.09;32.76
54122;BME280;40029;58.708;50.190;2023-02-20T00:12:23;99497.59;;;-16.33;32.93
54122;BME280;40029;58.708;50.190;2023-02-20T00:14:54;99540.78;;;-16.08;32.59
54122;BME280;40029;58.708;50.190;2023-02-20T00:17:25;99543.75;;;-16.00;32.76
54122;BME280;40029;58.708;50.190;2023-02-20T00:19:58;99600.50;;;-15.71;32.74
54122;BME280;40029;58.708;50.190;2023-02-20T00:22:29;99600.84;;;-15.65;32.90
54122;BME280;40029;58.708;50.190;2023-02-20T00:25:00;99596.13;;;-15.60;32.67
54122;BME280;40029;58.708;50.190;2023-02-20T00:27:50;99587.03;;;-15.73;32.75
54122;BME280;40029;58.708;50.190;2023-02-20T00:30:39;99593.16;;;-15.68;32.47
54122;BME280;40029;58.708;50.190;2023-02-20T00:33:10;99541.34;;;-15.99;32.38
54122;BME280;40029;58.708;50.190;2023-02-20T00:35:41;99586.84;;;-15.76;32.39
54122;BME280;40029;58.708;50.190;2023-02-20T00:38:31;99571.56;;;-15.81;32.30
54122;BME280;40029;58.708;50.190;2023-02-20T00:41:05;99578.91;;;-15.84;32.46
54122;BME280;40029;58.708;50.190;2023-02-20T00:43:36;99520.25;;;-16.17;32.24
54122;BME280;40029;58.708;50.190;2023-02-20T00:46:13;99579.63;;;-15.85;32.39
54122;BME280;40029;58.708;50.190;2023-02-20T00:48:44;99588.09;;;-15.83;32.38
54122;BME280;40029;58.708;50.190;2023-02-20T00:51:33;99558.31;;;-16.06;32.52
54122;BME280;40029;58.708;50.190;2023-02-20T00:54:05;99531.38;;;-16.25;32.11
54122;BME280;40029;58.708;50.190;2023-02-20T00:56:37;99569.16;;;-16.06;32.16
54122;BME280;40029;58.708;50.190;2023-02-20T00:59:08;99570.81;;;-16.06;32.25
54122;BME280;40029;58.708;50.190;2023-02-20T01:01:39;99580.22;;;-16.02;32.45
54122;BME280;40029;58.708;50.190;2023-02-20T01:04:10;99571.50;;;-16.09;32.21
54122;BME280;40029;58.708;50.190;2023-02-20T01:06:41;99576.66;;;-16.06;32.34
54122;BME280;40029;58.708;50.190;2023-02-20T01:09:16;99573.78;;;-16.12;32.23
54122;BME280;40029;58.708;50.190;2023-02-20T01:11:47;99553.25;;;-16.21;32.06
54122;BME280;40029;58.708;50.190;2023-02-20T01:14:18;99504.56;;;-16.54;32.53
54122;BME280;40029;58.708;50.190;2023-02-20T01:16:51;99530.00;;;-16.47;32.37
54122;BME280;40029;58.708;50.190;2023-02-20T01:19:23;99569.56;;;-16.26;32.04
54122;BME280;40029;58.708;50.190;2023-02-20T01:21:54;99498.88;;;-16.65;32.21
54122;BME280;40029;58.708;50.190;2023-02-20T01:24:43;99566.84;;;-16.29;32.43
54122;BME280;40029;58.708;50.190;2023-02-20T01:27:15;99543.91;;;-16.37;32.75
54122;BME280;40029;58.708;50.190;2023-02-20T01:30:06;99491.22;;;-16.68;32.73
54122;BME280;40029;58.708;50.190;2023-02-20T01:32:37;99492.75;;;-16.70;33.05
54122;BME280;40029;58.708;50.190;2023-02-20T01:35:27;99555.44;;;-16.39;34.26
54122;BME280;40029;58.708;50.190;2023-02-20T01:38:03;99488.34;;;-16.74;35.32
54122;BME280;40029;58.708;50.190;2023-02-20T01:40:36;99544.88;;;-16.35;36.37
54122;BME280;40029;58.708;50.190;2023-02-20T01:43:09;99477.63;;;-16.60;36.24
54122;BME280;40029;58.708;50.190;2023-02-20T01:45:40;99498.66;;;-16.43;35.36
54122;BME280;40029;58.708;50.190;2023-02-20T01:48:23;99523.19;;;-16.36;35.39
54122;BME280;40029;58.708;50.190;2023-02-20T01:50:58;99510.63;;;-16.37;35.79
54122;BME280;40029;58.708;50.190;2023-02-20T01:53:30;99547.28;;;-16.10;35.76
54122;BME280;40029;58.708;50.190;2023-02-20T01:56:04;99472.75;;;-16.45;35.67
54122;BME280;40029;58.708;50.190;2023-02-20T01:58:46;99543.34;;;-16.06;35.98
54122;BME280;40029;58.708;50.190;2023-02-20T02:01:19;99528.88;;;-16.12;35.42
54122;BME280;40029;58.708;50.190;2023-02-20T02:03:56;99497.31;;;-16.25;35.10
54122;BME280;40029;58.708;50.190;2023-02-20T02:06:30;99477.72;;;-16.32;35.30
54122;BME280;40029;58.708;50.190;2023-02-20T02:09:08;99521.88;;;-16.04;35.47
54122;BME280;40029;58.708;50.190;2023-02-20T02:11:46;99537.50;;;-15.94;35.01
54122;BME280;40029;58.708;50.190;2023-02-20T02:14:19;99473.88;;;-16.40;35.40
54122;BME280;40029;58.708;50.190;2023-02-20T02:19:57;99547.97;;;-15.99;36.02
54122;BME280;40029;58.708;50.190;2023-02-20T02:44:43;99567.41;;;-15.54;36.25
54122;BME280;40029;58.708;50.190;2023-02-20T02:47:22;99549.66;;;-15.58;36.10
54122;BME280;40029;58.708;50.190;2023-02-20T02:50:28;99494.22;;;-15.94;34.39
54122;BME280;40029;58.708;50.190;2023-02-20T02:52:58;99488.38;;;-16.08;34.60
54122;BME280;40029;58.708;50.190;2023-02-20T02:55:31;99502.59;;;-16.20;33.87
54122;BME280;40029;58.708;50.190;2023-02-20T02:58:05;99554.41;;;-16.03;33.35
54122;BME280;40029;58.708;50.190;2023-02-20T03:00:41;99507.06;;;-16.41;33.03
54122;BME280;40029;58.708;50.190;2023-02-20T03:03:18;99550.25;;;-16.29;34.07
54122;BME280;40029;58.708;50.190;2023-02-20T03:06:04;99528.84;;;-16.52;33.26
54122;BME280;40029;58.708;50.190;2023-02-20T03:08:58;99550.81;;;-16.46;33.42
54122;BME280;40029;58.708;50.190;2023-02-20T03:11:49;99539.75;;;-16.50;33.78
54122;BME280;40029;58.708;50.190;2023-02-20T03:14:27;99492.41;;;-16.76;33.77
54122;BME280;40029;58.708;50.190;2023-02-20T03:20:00;99469.81;;;-16.91;36.36
54122;BME280;40029;58.708;50.190;2023-02-20T03:22:52;99514.44;;;-16.56;36.83
54122;BME280;40029;58.708;50.190;2023-02-20T03:28:16;99481.78;;;-16.34;37.03
54122;BME280;40029;58.708;50.190;2023-02-20T03:31:09;99466.41;;;-16.40;36.94
54122;BME280;40029;58.708;50.190;2023-02-20T03:34:04;99485.31;;;-16.17;36.92
54122;BME280;40029;58.708;50.190;2023-02-20T03:37:02;99467.94;;;-16.16;36.77
54122;BME280;40029;58.708;50.190;2023-02-20T03:40:14;99523.69;;;-15.75;36.50
54122;BME280;40029;58.708;50.190;2023-02-20T03:43:11;99511.19;;;-15.75;35.41
54122;BME280;40029;58.708;50.190;2023-02-20T03:46:20;99456.34;;;-16.15;34.74
54122;BME280;40029;58.708;50.190;2023-02-20T03:48:59;99520.13;;;-15.79;34.57
54122;BME280;40029;58.708;50.190;2023-02-20T03:51:32;99501.78;;;-15.93;34.86
54122;BME280;40029;58.708;50.190;2023-02-20T03:54:12;99512.75;;;-15.91;34.97
54122;BME280;40029;58.708;50.190;2023-02-20T03:59:50;99516.78;;;-15.79;35.12
54122;BME280;40029;58.708;50.190;2023-02-20T04:02:37;99447.72;;;-16.20;35.61
54122;BME280;40029;58.708;50.190;2023-02-20T04:05:22;99435.34;;;-16.32;35.92
54122;BME280;40029;58.708;50.190;2023-02-20T04:08:49;99498.13;;;-15.84;35.83
54122;BME280;40029;58.708;50.190;2023-02-20T04:10:59;99441.38;;;-16.15;36.06
54122;BME280;40029;58.708;50.190;2023-02-20T04:13:52;99485.84;;;-15.81;36.34
54122;BME280;40029;58.708;50.190;2023-02-20T04:16:25;99437.03;;;-16.04;36.19
54122;BME280;40029;58.708;50.190;2023-02-20T04:18:56;99442.66;;;-15.94;35.56
54122;BME280;40029;58.708;50.190;2023-02-20T04:21:41;99492.66;;;-15.66;36.15
54122;BME280;40029;58.708;50.190;2023-02-20T04:25:02;99492.72;;;-15.64;36.22
54122;BME280;40029;58.708;50.190;2023-02-20T04:27:37;99422.25;;;-16.15;36.18
54122;BME280;40029;58.708;50.190;2023-02-20T04:30:09;99432.69;;;-15.94;36.09
54122;BME280;40029;58.708;50.190;2023-02-20T04:32:41;99476.69;;;-15.68;36.32
54122;BME280;40029;58.708;50.190;2023-02-20T04:35:16;99450.91;;;-15.81;35.86
54122;BME280;40029;58.708;50.190;2023-02-20T04:37:48;99476.94;;;-15.63;35.81
54122;BME280;40029;58.708;50.190;2023-02-20T04:40:22;99469.63;;;-15.60;35.64
54122;BME280;40029;58.708;50.190;2023-02-20T04:42:53;99482.31;;;-15.57;35.68
54122;BME280;40029;58.708;50.190;2023-02-20T04:45:24;99371.94;;;-16.22;35.69
54122;BME280;40029;58.708;50.190;2023-02-20T04:47:55;99492.56;;;-15.52;35.73
54122;BME280;40029;58.708;50.190;2023-02-20T04:50:31;99465.41;;;-15.61;36.07
54122;BME280;40029;58.708;50.190;2023-02-20T04:53:03;99419.91;;;-15.85;35.71
54122;BME280;40029;58.708;50.190;2023-02-20T04:55:34;99436.47;;;-15.72;35.52
54122;BME280;40029;58.708;50.190;2023-02-20T04:58:11;99473.06;;;-15.45;35.80
54122;BME280;40029;58.708;50.190;2023-02-20T05:00:55;99482.91;;;-15.33;35.86
54122;BME280;40029;58.708;50.190;2023-02-20T05:03:26;99446.06;;;-15.65;35.81
54122;BME280;40029;58.708;50.190;2023-02-20T05:05:57;99483.94;;;-15.29;35.68
54122;BME280;40029;58.708;50.190;2023-02-20T05:08:30;99421.09;;;-15.65;35.74
54122;BME280;40029;58.708;50.190;2023-02-20T05:11:01;99483.66;;;-15.34;35.69
54122;BME280;40029;58.708;50.190;2023-02-20T05:13:32;99476.19;;;-15.34;35.41
54122;BME280;40029;58.708;50.190;2023-02-20T05:16:03;99454.03;;;-15.43;36.04
54122;BME280;40029;58.708;50.190;2023-02-20T05:18:35;99426.53;;;-15.57;35.58
54122;BME280;40029;58.708;50.190;2023-02-20T05:21:06;99429.16;;;-15.41;35.47
54122;BME280;40029;58.708;50.190;2023-02-20T05:23:55;99479.19;;;-15.11;35.65
54122;BME280;40029;58.708;50.190;2023-02-20T05:26:45;99398.47;;;-15.39;35.55
54122;BME280;40029;58.708;50.190;2023-02-20T05:29:16;99422.91;;;-15.20;35.86
54122;BME280;40029;58.708;50.190;2023-02-20T05:31:47;99402.47;;;-15.27;35.54
54122;BME280;40029;58.708;50.190;2023-02-20T05:34:18;99458.09;;;-14.87;35.40
54122;BME280;40029;58.708;50.190;2023-02-20T05:36:52;99467.22;;;-14.88;35.63
54122;BME280;40029;58.708;50.190;2023-02-20T05:39:24;99429.28;;;-14.95;35.27
54122;BME280;40029;58.708;50.190;2023-02-20T05:41:55;99439.91;;;-14.84;35.77
54122;BME280;40029;58.708;50.190;2023-02-20T05:44:27;99460.41;;;-14.75;35.63
54122;BME280;40029;58.708;50.190;2023-02-20T05:46:58;99382.66;;;-15.09;36.05
54122;BME280;40029;58.708;50.190;2023-02-20T05:49:29;99447.03;;;-14.61;35.40
54122;BME280;40029;58.708;50.190;2023-02-20T05:52:01;99388.69;;;-14.91;35.61
54122;BME280;40029;58.708;50.190;2023-02-20T05:54:33;99408.44;;;-14.81;35.84
54122;BME280;40029;58.708;50.190;2023-02-20T05:57:04;99398.63;;;-14.78;35.46
54122;BME280;40029;58.708;50.190;2023-02-20T05:59:36;99393.34;;;-14.82;35.38
54122;BME280;40029;58.708;50.190;2023-02-20T06:02:07;99424.38;;;-14.64;35.54
54122;BME280;40029;58.708;50.190;2023-02-20T06:04:38;99443.97;;;-14.41;35.40
54122;BME280;40029;58.708;50.190;2023-02-20T06:07:09;99384.38;;;-14.64;35.68
54122;BME280;40029;58.708;50.190;2023-02-20T06:09:42;99441.38;;;-14.27;35.64
54122;BME280;40029;58.708;50.190;2023-02-20T06:12:13;99378.41;;;-14.51;35.79
54122;BME280;40029;58.708;50.190;2023-02-20T06:15:03;99363.06;;;-14.41;35.85
54122;BME280;40029;58.708;50.190;2023-02-20T06:17:35;99385.72;;;-14.23;35.61
54122;BME280;40029;58.708;50.190;2023-02-20T06:20:06;99362.19;;;-14.27;35.83
54122;BME280;40029;58.708;50.190;2023-02-20T06:22:37;99416.47;;;-13.78;36.01
54122;BME280;40029;58.708;50.190;2023-02-20T06:25:27;99364.41;;;-14.00;36.07
54122;BME280;40029;58.708;50.190;2023-02-20T06:27:58;99412.88;;;-13.67;36.40
54122;BME280;40029;58.708;50.190;2023-02-20T06:30:29;99421.28;;;-13.50;35.98
54122;BME280;40029;58.708;50.190;2023-02-20T06:33:00;99397.69;;;-13.54;36.52
54122;BME280;40029;58.708;50.190;2023-02-20T06:35:32;99352.78;;;-13.67;36.57
54122;BME280;40029;58.708;50.190;2023-02-20T06:38:03;99346.00;;;-13.52;35.78
54122;BME280;40029;58.708;50.190;2023-02-20T06:40:34;99353.56;;;-13.34;36.17
54122;BME280;40029;58.708;50.190;2023-02-20T06:43:05;99357.25;;;-13.10;35.69
54122;BME280;40029;58.708;50.190;2023-02-20T06:45:54;99394.00;;;-12.76;35.72
54122;BME280;40029;58.708;50.190;2023-02-20T06:48:25;99395.00;;;-12.72;36.09
54122;BME280;40029;58.708;50.190;2023-02-20T06:50:56;99340.16;;;-13.00;36.74
54122;BME280;40029;58.708;50.190;2023-02-20T06:53:27;99340.91;;;-12.85;36.95
54122;BME280;40029;58.708;50.190;2023-02-20T06:55:59;99371.41;;;-12.40;36.47
54122;BME280;40029;58.708;50.190;2023-02-20T06:58:30;99305.44;;;-12.57;36.39
54122;BME280;40029;58.708;50.190;2023-02-20T07:01:01;99383.09;;;-12.05;36.37
54122;BME280;40029;58.708;50.190;2023-02-20T07:03:32;99371.94;;;-11.92;36.05
54122;BME280;40029;58.708;50.190;2023-02-20T07:06:04;99336.69;;;-12.13;36.84
54122;BME280;40029;58.708;50.190;2023-02-20T07:08:36;99364.25;;;-11.76;36.51
54122;BME280;40029;58.708;50.190;2023-02-20T07:11:08;99305.50;;;-11.99;36.46
54122;BME280;40029;58.708;50.190;2023-02-20T07:13:39;99300.00;;;-11.90;36.43
54122;BME280;40029;58.708;50.190;2023-02-20T07:16:10;99342.91;;;-11.66;36.90
54122;BME280;40029;58.708;50.190;2023-02-20T07:18:42;99328.41;;;-11.52;36.39
54122;BME280;40029;58.708;50.190;2023-02-20T07:21:13;99356.38;;;-11.25;36.39
54122;BME280;40029;58.708;50.190;2023-02-20T07:23:44;99351.22;;;-11.07;36.71
54122;BME280;40029;58.708;50.190;2023-02-20T07:26:23;99350.13;;;-10.93;36.50
54122;BME280;40029;58.708;50.190;2023-02-20T07:28:56;99337.09;;;-10.83;36.18
54122;BME280;40029;58.708;50.190;2023-02-20T07:31:33;99287.84;;;-10.99;36.42
54122;BME280;40029;58.708;50.190;2023-02-20T07:34:04;99281.53;;;-11.10;36.37
54122;BME280;40029;58.708;50.190;2023-02-20T07:36:40;99336.53;;;-10.55;35.86
54122;BME280;40029;58.708;50.190;2023-02-20T07:39:12;99336.09;;;-10.45;35.79
54122;BME280;40029;58.708;50.190;2023-02-20T07:41:43;99315.59;;;-10.54;36.43
54122;BME280;40029;58.708;50.190;2023-02-20T07:44:34;99288.66;;;-10.56;35.86
54122;BME280;40029;58.708;50.190;2023-02-20T07:47:06;99268.69;;;-10.52;36.24
54122;BME280;40029;58.708;50.190;2023-02-20T07:49:37;99317.28;;;-10.08;36.24
54122;BME280;40029;58.708;50.190;2023-02-20T07:52:08;99305.44;;;-10.11;36.17
54122;BME280;40029;58.708;50.190;2023-02-20T07:54:39;99314.63;;;-9.89;35.85
54122;BME280;40029;58.708;50.190;2023-02-20T07:57:10;99273.19;;;-9.97;36.12
54122;BME280;40029;58.708;50.190;2023-02-20T07:59:41;99269.84;;;-9.96;36.34
54122;BME280;40029;58.708;50.190;2023-02-20T08:02:12;99293.75;;;-9.61;35.67
54122;BME280;40029;58.708;50.190;2023-02-20T08:04:43;99316.50;;;-9.59;36.06
54122;BME280;40029;58.708;50.190;2023-02-20T08:07:14;99300.59;;;-9.33;36.17
54122;BME280;40029;58.708;50.190;2023-02-20T08:10:04;99308.72;;;-9.16;35.64
54122;BME280;40029;58.708;50.190;2023-02-20T08:12:35;99305.78;;;-9.02;35.71
54122;BME280;40029;58.708;50.190;2023-02-20T08:15:07;99286.28;;;-9.08;35.76
54122;BME280;40029;58.708;50.190;2023-02-20T08:17:41;99245.41;;;-9.23;35.61
54122;BME280;40029;58.708;50.190;2023-02-20T08:20:15;99297.22;;;-8.81;35.56
54122;BME280;40029;58.708;50.190;2023-02-20T08:23:16;99234.28;;;-9.03;35.37
54122;BME280;40029;58.708;50.190;2023-02-20T08:25:48;99228.50;;;-8.99;34.85
54122;BME280;40029;58.708;50.190;2023-02-20T08:28:19;99288.16;;;-8.47;35.22
54122;BME280;40029;58.708;50.190;2023-02-20T08:30:51;99245.66;;;-8.60;34.96
54122;BME280;40029;58.708;50.190;2023-02-20T08:33:22;99277.44;;;-8.40;34.63
54122;BME280;40029;58.708;50.190;2023-02-20T08:35:53;99226.88;;;-8.70;34.71
54122;BME280;40029;58.708;50.190;2023-02-20T08:38:31;99285.53;;;-8.20;34.52
54122;BME280;40029;58.708;50.190;2023-02-20T08:41:06;99257.56;;;-8.27;34.72
54122;BME280;40029;58.708;50.190;2023-02-20T08:43:38;99258.06;;;-8.09;34.17
54122;BME280;40029;58.708;50.190;2023-02-20T08:46:10;99213.06;;;-8.21;34.30
54122;BME280;40029;58.708;50.190;2023-02-20T08:48:42;99239.91;;;-7.94;34.31
54122;BME280;40029;58.708;50.190;2023-02-20T08:51:31;99122.19;;;-8.51;34.12
54122;BME280;40029;58.708;50.190;2023-02-20T08:54:02;99197.88;;;-7.91;34.26
54122;BME280;40029;58.708;50.190;2023-02-20T08:56:34;99196.50;;;-7.80;34.00
54122;BME280;40029;58.708;50.190;2023-02-20T08:59:05;99196.81;;;-7.67;34.27
54122;BME280;40029;58.708;50.190;2023-02-20T09:01:39;99224.16;;;-7.52;33.89
54122;BME280;40029;58.708;50.190;2023-02-20T09:04:10;99193.06;;;-7.48;33.48
54122;BME280;40029;58.708;50.190;2023-02-20T09:06:41;99223.25;;;-7.21;33.81
54122;BME280;40029;58.708;50.190;2023-02-20T09:09:12;99232.94;;;-7.03;33.41
54122;BME280;40029;58.708;50.190;2023-02-20T09:11:43;99231.53;;;-6.92;33.12
54122;BME280;40029;58.708;50.190;2023-02-20T09:14:14;99173.66;;;-7.13;33.18
54122;BME280;40029;58.708;50.190;2023-02-20T09:17:04;99206.31;;;-6.88;33.20
54122;BME280;40029;58.708;50.190;2023-02-20T09:19:36;99165.25;;;-7.11;33.05
54122;BME280;40029;58.708;50.190;2023-02-20T09:22:07;99191.25;;;-6.80;33.02
54122;BME280;40029;58.708;50.190;2023-02-20T09:24:38;99211.91;;;-6.63;32.66
54122;BME280;40029;58.708;50.190;2023-02-20T09:27:09;99192.47;;;-6.63;32.85
54122;BME280;40029;58.708;50.190;2023-02-20T09:29:40;99179.22;;;-6.51;32.75
54122;BME280;40029;58.708;50.190;2023-02-20T09:32:13;99129.78;;;-6.73;32.56
54122;BME280;40029;58.708;50.190;2023-02-20T09:34:44;99141.00;;;-6.62;32.51
54122;BME280;40029;58.708;50.190;2023-02-20T09:37:15;99101.09;;;-6.72;32.25
54122;BME280;40029;58.708;50.190;2023-02-20T09:40:05;99149.22;;;-6.31;31.99
54122;BME280;40029;58.708;50.190;2023-02-20T09:46:22;99165.81;;;-6.03;30.92
54122;BME280;40029;58.708;50.190;2023-02-20T09:49:12;99104.25;;;-6.41;31.18
54122;BME280;40029;58.708;50.190;2023-02-20T09:51:49;99156.13;;;-6.24;30.88
54122;BME280;40029;58.708;50.190;2023-02-20T09:57:09;99098.13;;;-6.51;30.93
54122;BME280;40029;58.708;50.190;2023-02-20T10:00:13;99161.91;;;-6.30;30.95
54122;BME280;40029;58.708;50.190;2023-02-20T10:05:50;99095.72;;;-6.45;30.75
54122;BME280;40029;58.708;50.190;2023-02-20T10:08:23;99136.09;;;-6.09;30.77
54122;BME280;40029;58.708;50.190;2023-02-20T10:11:01;99130.72;;;-6.25;30.39
54122;BME280;40029;58.708;50.190;2023-02-20T10:16:50;99137.91;;;-6.48;30.21
54122;BME280;40029;58.708;50.190;2023-02-20T10:19:28;99124.19;;;-6.13;30.65
54122;BME280;40029;58.708;50.190;2023-02-20T10:22:55;99073.25;;;-6.25;30.79
54122;BME280;40029;58.708;50.190;2023-02-20T10:25:33;99113.69;;;-5.84;30.57
54122;BME280;40029;58.708;50.190;2023-02-20T10:28:08;99126.66;;;-5.67;30.11
54122;BME280;40029;58.708;50.190;2023-02-20T10:33:20;99119.13;;;-5.61;30.05
54122;BME280;40029;58.708;50.190;2023-02-20T10:38:47;99103.88;;;-5.63;29.90
54122;BME280;40029;58.708;50.190;2023-02-20T10:41:29;99070.63;;;-5.78;29.84
54122;BME280;40029;58.708;50.190;2023-02-20T10:49:34;99112.59;;;-5.47;29.66
54122;BME280;40029;58.708;50.190;2023-02-20T10:52:32;99101.25;;;-5.69;29.84
54122;BME280;40029;58.708;50.190;2023-02-20T10:55:16;99092.00;;;-5.65;29.85
54122;BME280;40029;58.708;50.190;2023-02-20T10:58:07;99069.63;;;-5.89;29.66
54122;BME280;40029;58.708;50.190;2023-02-20T11:01:02;99058.84;;;-5.76;29.66
54122;BME280;40029;58.708;50.190;2023-02-20T11:06:15;99083.84;;;-5.44;29.67
54122;BME280;40029;58.708;50.190;2023-02-20T11:08:46;99047.28;;;-5.57;29.76
54122;BME280;40029;58.708;50.190;2023-02-20T11:11:37;99085.00;;;-5.25;29.14
54122;BME280;40029;58.708;50.190;2023-02-20T11:14:19;99046.56;;;-5.50;29.78
54122;BME280;40029;58.708;50.190;2023-02-20T11:17:02;99029.59;;;-5.53;29.35
54122;BME280;40029;58.708;50.190;2023-02-20T11:19:41;98986.13;;;-5.77;29.50
54122;BME280;40029;58.708;50.190;2023-02-20T11:22:14;99061.13;;;-5.35;29.18
54122;BME280;40029;58.708;50.190;2023-02-20T11:25:33;99034.03;;;-5.38;29.03
54122;BME280;40029;58.708;50.190;2023-02-20T11:28:23;99055.38;;;-5.23;29.14
54122;BME280;40029;58.708;50.190;2023-02-20T11:31:04;99008.72;;;-5.33;28.99
54122;BME280;40029;58.708;50.190;2023-02-20T11:33:42;99017.78;;;-5.52;28.83
54122;BME280;40029;58.708;50.190;2023-02-20T11:36:17;99058.81;;;-5.21;29.08
54122;BME280;40029;58.708;50.190;2023-02-20T11:38:58;98926.72;;;-5.93;29.14
54122;BME280;40029;58.708;50.190;2023-02-20T11:41:34;98990.66;;;-5.56;28.65
54122;BME280;40029;58.708;50.190;2023-02-20T11:46:40;99001.81;;;-5.42;29.02
54122;BME280;40029;58.708;50.190;2023-02-20T11:49:30;98957.66;;;-5.56;29.02
54122;BME280;40029;58.708;50.190;2023-02-20T11:52:15;99039.28;;;-5.24;28.63
54122;BME280;40029;58.708;50.190;2023-02-20T11:55:05;98984.91;;;-5.41;28.78
54122;BME280;40029;58.708;50.190;2023-02-20T11:57:42;99042.91;;;-5.08;28.54
54122;BME280;40029;58.708;50.190;2023-02-20T12:02:53;99030.72;;;-5.32;29.16
54122;BME280;40029;58.708;50.190;2023-02-20T12:05:42;99022.56;;;-5.10;28.68
54122;BME280;40029;58.708;50.190;2023-02-20T12:11:14;98979.94;;;-5.32;28.43
54122;BME280;40029;58.708;50.190;2023-02-20T12:13:51;98994.28;;;-5.36;28.40
54122;BME280;40029;58.708;50.190;2023-02-20T12:27:25;99006.59;;;-4.99;28.35
54122;BME280;40029;58.708;50.190;2023-02-20T12:36:30;98951.25;;;-5.26;28.75
54122;BME280;40029;58.708;50.190;2023-02-20T12:42:29;98993.94;;;-4.93;28.18
54122;BME280;40029;58.708;50.190;2023-02-20T12:45:26;98994.34;;;-4.55;28.24
54122;BME280;40029;58.708;50.190;2023-02-20T12:57:00;98994.13;;;-4.78;27.41
54122;BME280;40029;58.708;50.190;2023-02-20T12:59:57;98987.06;;;-5.05;27.87
54122;BME280;40029;58.708;50.190;2023-02-20T13:02:35;98987.81;;;-5.12;28.11
54122;BME280;40029;58.708;50.190;2023-02-20T13:05:10;98932.28;;;-5.53;28.72
54122;BME280;40029;58.708;50.190;2023-02-20T13:07:54;98983.25;;;-5.39;28.94
54122;BME280;40029;58.708;50.190;2023-02-20T13:10:46;98949.81;;;-5.70;28.76
54122;BME280;40029;58.708;50.190;2023-02-20T13:13:19;98964.16;;;-5.75;29.30
54122;BME280;40029;58.708;50.190;2023-02-20T13:15:57;98941.94;;;-5.94;29.43
54122;BME280;40029;58.708;50.190;2023-02-20T13:18:50;98922.19;;;-6.12;29.31
54122;BME280;40029;58.708;50.190;2023-02-20T13:21:27;98884.63;;;-6.41;29.60
54122;BME280;40029;58.708;50.190;2023-02-20T13:24:33;98967.25;;;-5.96;29.61
54122;BME280;40029;58.708;50.190;2023-02-20T13:27:31;98946.75;;;-6.11;29.30
54122;BME280;40029;58.708;50.190;2023-02-20T13:30:17;98964.53;;;-6.08;29.78
54122;BME280;40029;58.708;50.190;2023-02-20T13:33:22;98966.16;;;-6.13;29.96
54122;BME280;40029;58.708;50.190;2023-02-20T13:35:56;98954.13;;;-6.25;29.73
54122;BME280;40029;58.708;50.190;2023-02-20T13:38:27;98966.72;;;-6.30;30.00
54122;BME280;40029;58.708;50.190;2023-02-20T13:41:17;98957.25;;;-6.41;30.36
54122;BME280;40029;58.708;50.190;2023-02-20T13:43:48;98958.00;;;-6.47;29.98
54122;BME280;40029;58.708;50.190;2023-02-20T13:46:20;98905.97;;;-6.76;30.27
54122;BME280;40029;58.708;50.190;2023-02-20T13:48:54;98916.94;;;-6.77;30.49
54122;BME280;40029;58.708;50.190;2023-02-20T13:54:09;98907.44;;;-6.91;30.56
54122;BME280;40029;58.708;50.190;2023-02-20T13:56:54;98926.84;;;-6.90;30.48
54122;BME280;40029;58.708;50.190;2023-02-20T13:59:29;98908.75;;;-7.10;30.78
54122;BME280;40029;58.708;50.190;2023-02-20T14:02:24;98955.69;;;-6.82;30.82
54122;BME280;40029;58.708;50.190;2023-02-20T14:05:03;98910.41;;;-7.12;30.84
54122;BME280;40029;58.708;50.190;2023-02-20T14:07:37;98957.22;;;-6.91;31.24
54122;BME280;40029;58.708;50.190;2023-02-20T14:10:32;98957.91;;;-7.00;31.15
54122;BME280;40029;58.708;50.190;2023-02-20T14:16:22;98951.00;;;-7.07;31.49
54122;BME280;40029;58.708;50.190;2023-02-20T14:21:49;98954.22;;;-7.14;31.65
54122;BME280;40029;58.708;50.190;2023-02-20T14:24:27;98935.41;;;-7.28;31.42
54122;BME280;40029;58.708;50.190;2023-02-20T14:26:58;98894.16;;;-7.67;31.53
54122;BME280;40029;58.708;50.190;2023-02-20T14:29:33;98944.50;;;-7.38;31.76
54122;BME280;40029;58.708;50.190;2023-02-20T14:32:05;98905.16;;;-7.65;31.82
54122;BME280;40029;58.708;50.190;2023-02-20T14:34:59;98940.13;;;-7.47;32.00
54122;BME280;40029;58.708;50.190;2023-02-20T14:40:22;98942.44;;;-7.56;31.94
54122;BME280;40029;58.708;50.190;2023-02-20T14:42:59;98931.16;;;-7.72;32.10
54122;BME280;40029;58.708;50.190;2023-02-20T14:45:31;98903.75;;;-7.93;31.91
54122;BME280;40029;58.708;50.190;2023-02-20T14:48:03;98892.44;;;-8.09;32.36
54122;BME280;40029;58.708;50.190;2023-02-20T14:51:15;98941.19;;;-7.76;32.73
54122;BME280;40029;58.708;50.190;2023-02-20T14:53:57;98890.63;;;-8.14;32.50
54122;BME280;40029;58.708;50.190;2023-02-20T14:56:28;98886.16;;;-8.24;32.90
54122;BME280;40029;58.708;50.190;2023-02-20T15:01:59;98903.09;;;-8.22;32.91
54122;BME280;40029;58.708;50.190;2023-02-20T15:04:31;98935.38;;;-8.10;33.01
54122;BME280;40029;58.708;50.190;2023-02-20T15:07:04;98836.44;;;-8.66;33.30
54122;BME280;40029;58.708;50.190;2023-02-20T15:09:45;98935.28;;;-8.13;33.35
54122;BME280;40029;58.708;50.190;2023-02-20T15:12:41;98919.84;;;-8.25;33.36
54122;BME280;40029;58.708;50.190;2023-02-20T15:15:35;98925.66;;;-8.30;33.21
54122;BME280;40029;58.708;50.190;2023-02-20T15:18:13;98941.66;;;-8.29;33.92
54122;BME280;40029;58.708;50.190;2023-02-20T15:20:47;98883.59;;;-8.65;33.33
54122;BME280;40029;58.708;50.190;2023-02-20T15:23:28;98930.53;;;-8.39;33.70
54122;BME280;40029;58.708;50.190;2023-02-20T15:29:24;98920.13;;;-8.51;33.10
54122;BME280;40029;58.708;50.190;2023-02-20T15:31:58;98882.38;;;-8.79;32.94
54122;BME280;40029;58.708;50.190;2023-02-20T15:34:33;98888.22;;;-8.82;33.13
54122;BME280;40029;58.708;50.190;2023-02-20T15:37:22;98916.25;;;-8.71;33.53